NKS9934 KDTW-KVCV
Flight info
| Callsign | NKS9934 |
|---|---|
| Flight time | 4h 54m |
| Altitude | 38000 |
| Route | BARII3 SINKR VHP J80 MCI J24 SLN J102 ALS J44 RSK J64 PGS DNERO HEC APLES |
| Aircraft | A320/M-SDE3FGHIRWY/LB1 |
Departure
| Time | 2026-05-04 13:06 |
|---|---|
| Airport | Detroit Metropolitan Wayne County Airport (KDTW) |
Arrival
| Time | 2026-05-04 18:00 |
|---|---|
| Airport | Southern California Logistics Airport (KVCV) |
| Time | Latitude | Longitude | Altitude | Speed | Heading |
|---|---|---|---|---|---|
| 2026-05-04 12:42 | 42.22250 | -83.35988 | 647 ft | 0 kts | 14° |
| 2026-05-04 12:53 | 42.22258 | -83.35985 | 649 ft | 3 kts | 14° |
| 2026-05-04 12:53 | 42.22272 | -83.35952 | 647 ft | 6 kts | 83° |
| 2026-05-04 12:53 | 42.22258 | -83.35903 | 647 ft | 6 kts | 108° |
| 2026-05-04 12:54 | 42.22248 | -83.35872 | 647 ft | 0 kts | 115° |
| 2026-05-04 12:54 | 42.22248 | -83.35870 | 647 ft | 1 kts | 115° |
| 2026-05-04 12:55 | 42.22235 | -83.35847 | 647 ft | 5 kts | 137° |
| 2026-05-04 12:55 | 42.22201 | -83.35852 | 647 ft | 0 kts | 210° |
| 2026-05-04 12:55 | 42.22190 | -83.35860 | 649 ft | 4 kts | 207° |
| 2026-05-04 12:55 | 42.22154 | -83.35882 | 647 ft | 8 kts | 205° |
| 2026-05-04 12:56 | 42.22097 | -83.35924 | 647 ft | 11 kts | 210° |
| 2026-05-04 12:56 | 42.22018 | -83.35985 | 648 ft | 15 kts | 209° |
| 2026-05-04 12:56 | 42.21933 | -83.36048 | 647 ft | 10 kts | 207° |
| 2026-05-04 12:56 | 42.21863 | -83.36091 | 647 ft | 11 kts | 192° |
| 2026-05-04 12:57 | 42.21813 | -83.36043 | 647 ft | 11 kts | 103° |
| 2026-05-04 12:57 | 42.21816 | -83.35972 | 646 ft | 8 kts | 88° |
| 2026-05-04 12:57 | 42.21817 | -83.35869 | 645 ft | 13 kts | 90° |
| 2026-05-04 12:57 | 42.21817 | -83.35731 | 645 ft | 16 kts | 90° |
| 2026-05-04 12:58 | 42.21818 | -83.35570 | 645 ft | 17 kts | 89° |
| 2026-05-04 12:58 | 42.21823 | -83.35393 | 646 ft | 20 kts | 87° |
| 2026-05-04 12:58 | 42.21827 | -83.35187 | 646 ft | 23 kts | 89° |
| 2026-05-04 12:58 | 42.21829 | -83.34981 | 647 ft | 18 kts | 89° |
| 2026-05-04 12:59 | 42.21832 | -83.34796 | 646 ft | 21 kts | 89° |
| 2026-05-04 12:59 | 42.21835 | -83.34629 | 647 ft | 9 kts | 88° |
| 2026-05-04 12:59 | 42.21842 | -83.34535 | 648 ft | 11 kts | 73° |
| 2026-05-04 12:59 | 42.21910 | -83.34460 | 646 ft | 15 kts | 28° |
| 2026-05-04 13:00 | 42.22008 | -83.34388 | 647 ft | 17 kts | 28° |
| 2026-05-04 13:00 | 42.22123 | -83.34304 | 647 ft | 20 kts | 28° |
| 2026-05-04 13:00 | 42.22250 | -83.34211 | 647 ft | 18 kts | 28° |
| 2026-05-04 13:00 | 42.22342 | -83.34142 | 646 ft | 15 kts | 29° |
| 2026-05-04 13:01 | 42.22443 | -83.34068 | 646 ft | 18 kts | 28° |
| 2026-05-04 13:01 | 42.22559 | -83.33982 | 646 ft | 20 kts | 29° |
| 2026-05-04 13:01 | 42.22682 | -83.33891 | 646 ft | 18 kts | 27° |
| 2026-05-04 13:01 | 42.22778 | -83.33821 | 646 ft | 16 kts | 28° |
| 2026-05-04 13:02 | 42.22847 | -83.33769 | 646 ft | 8 kts | 37° |
| 2026-05-04 13:02 | 42.22861 | -83.33731 | 645 ft | 0 kts | 83° |
| 2026-05-04 13:02 | 42.22861 | -83.33729 | 645 ft | 0 kts | 83° |
| 2026-05-04 13:04 | 42.22861 | -83.33726 | 645 ft | 2 kts | 88° |
| 2026-05-04 13:05 | 42.22847 | -83.33682 | 644 ft | 8 kts | 117° |
| 2026-05-04 13:05 | 42.22806 | -83.33641 | 645 ft | 8 kts | 178° |
| 2026-05-04 13:05 | 42.22746 | -83.33675 | 647 ft | 13 kts | 208° |
| 2026-05-04 13:05 | 42.22409 | -83.33926 | 647 ft | 103 kts | 209° |
| 2026-05-04 13:06 | 42.21560 | -83.34565 | 746 ft | 167 kts | 210° |
| 2026-05-04 13:06 | 42.20477 | -83.35370 | 1316 ft | 180 kts | 210° |
| 2026-05-04 13:06 | 42.19395 | -83.36160 | 2121 ft | 173 kts | 212° |
| 2026-05-04 13:06 | 42.18239 | -83.36721 | 2621 ft | 185 kts | 201° |
| 2026-05-04 13:07 | 42.16930 | -83.37220 | 2852 ft | 210 kts | 200° |
| 2026-05-04 13:07 | 42.15437 | -83.37788 | 3354 ft | 236 kts | 199° |
| 2026-05-04 13:07 | 42.13791 | -83.38416 | 4145 ft | 253 kts | 199° |
| 2026-05-04 13:07 | 42.12069 | -83.39031 | 5228 ft | 257 kts | 198° |
| 2026-05-04 13:08 | 42.10277 | -83.39692 | 6333 ft | 261 kts | 199° |
| 2026-05-04 13:08 | 42.08495 | -83.40366 | 6785 ft | 265 kts | 200° |
| 2026-05-04 13:08 | 42.06714 | -83.41031 | 6968 ft | 266 kts | 199° |
| 2026-05-04 13:08 | 42.04918 | -83.41647 | 7001 ft | 266 kts | 198° |
| 2026-05-04 13:09 | 42.03117 | -83.42236 | 7009 ft | 267 kts | 198° |
| 2026-05-04 13:09 | 42.01313 | -83.42824 | 7008 ft | 266 kts | 198° |
| 2026-05-04 13:09 | 41.99511 | -83.43412 | 7006 ft | 266 kts | 198° |
| 2026-05-04 13:09 | 41.97714 | -83.44000 | 7011 ft | 267 kts | 198° |
| 2026-05-04 13:10 | 41.95846 | -83.44613 | 7016 ft | 267 kts | 198° |
| 2026-05-04 13:10 | 41.94070 | -83.45394 | 7368 ft | 272 kts | 205° |
| 2026-05-04 13:10 | 41.92333 | -83.46385 | 8479 ft | 271 kts | 207° |
| 2026-05-04 13:10 | 41.90603 | -83.47431 | 9485 ft | 276 kts | 208° |
| 2026-05-04 13:11 | 41.88834 | -83.48504 | 10311 ft | 285 kts | 208° |
| 2026-05-04 13:11 | 41.86949 | -83.49640 | 10688 ft | 309 kts | 208° |
| 2026-05-04 13:11 | 41.84913 | -83.50846 | 10984 ft | 332 kts | 207° |
| 2026-05-04 13:11 | 41.82721 | -83.52123 | 11284 ft | 353 kts | 207° |
| 2026-05-04 13:12 | 41.80431 | -83.53431 | 11932 ft | 361 kts | 206° |
| 2026-05-04 13:12 | 41.78111 | -83.54737 | 12678 ft | 366 kts | 206° |
| 2026-05-04 13:12 | 41.76535 | -83.55617 | 13194 ft | 370 kts | 206° |
| 2026-05-04 13:12 | 41.74111 | -83.56970 | 13943 ft | 374 kts | 206° |
| 2026-05-04 13:13 | 41.70879 | -83.58784 | 14851 ft | 380 kts | 207° |
| 2026-05-04 13:13 | 41.69266 | -83.59726 | 15298 ft | 382 kts | 208° |
| 2026-05-04 13:13 | 41.66863 | -83.61244 | 15975 ft | 385 kts | 210° |
| 2026-05-04 13:13 | 41.64453 | -83.62854 | 16670 ft | 388 kts | 211° |
| 2026-05-04 13:14 | 41.62032 | -83.64507 | 17372 ft | 392 kts | 212° |
| 2026-05-04 13:14 | 41.59588 | -83.66172 | 18101 ft | 397 kts | 212° |
| 2026-05-04 13:14 | 41.57110 | -83.67841 | 18739 ft | 401 kts | 211° |
| 2026-05-04 13:14 | 41.54600 | -83.69514 | 19376 ft | 404 kts | 211° |
| 2026-05-04 13:15 | 41.52072 | -83.71183 | 20020 ft | 408 kts | 211° |
| 2026-05-04 13:15 | 41.49517 | -83.72862 | 20614 ft | 411 kts | 211° |
| 2026-05-04 13:15 | 41.46943 | -83.74548 | 21182 ft | 414 kts | 211° |
| 2026-05-04 13:15 | 41.44310 | -83.76273 | 21741 ft | 417 kts | 211° |
| 2026-05-04 13:16 | 41.41746 | -83.77950 | 22253 ft | 420 kts | 211° |
| 2026-05-04 13:16 | 41.39111 | -83.79675 | 22759 ft | 423 kts | 211° |
| 2026-05-04 13:16 | 41.36463 | -83.81406 | 23253 ft | 426 kts | 211° |
| 2026-05-04 13:16 | 41.33793 | -83.83150 | 23677 ft | 429 kts | 211° |
| 2026-05-04 13:17 | 41.31103 | -83.84907 | 24065 ft | 432 kts | 211° |
| 2026-05-04 13:17 | 41.28404 | -83.86668 | 24458 ft | 435 kts | 211° |
| 2026-05-04 13:17 | 41.25677 | -83.88445 | 24842 ft | 438 kts | 211° |
| 2026-05-04 13:17 | 41.22933 | -83.90232 | 25229 ft | 441 kts | 211° |
| 2026-05-04 13:18 | 41.20187 | -83.92017 | 25609 ft | 443 kts | 211° |
| 2026-05-04 13:18 | 41.17390 | -83.93833 | 25991 ft | 446 kts | 210° |
| 2026-05-04 13:18 | 41.14602 | -83.95644 | 26363 ft | 449 kts | 210° |
| 2026-05-04 13:18 | 41.11783 | -83.97473 | 26727 ft | 452 kts | 210° |
| 2026-05-04 13:19 | 41.08915 | -83.99334 | 27084 ft | 455 kts | 210° |
| 2026-05-04 13:19 | 41.06063 | -84.01186 | 27431 ft | 457 kts | 210° |
| 2026-05-04 13:19 | 41.03201 | -84.03037 | 27755 ft | 460 kts | 210° |
| 2026-05-04 13:19 | 41.00307 | -84.04903 | 28071 ft | 463 kts | 210° |
| 2026-05-04 13:20 | 40.97437 | -84.06752 | 28360 ft | 465 kts | 210° |
| 2026-05-04 13:20 | 40.94516 | -84.08631 | 28669 ft | 466 kts | 210° |
| 2026-05-04 13:20 | 40.91611 | -84.10496 | 29090 ft | 465 kts | 210° |
| 2026-05-04 13:20 | 40.88694 | -84.12369 | 29518 ft | 464 kts | 210° |
| 2026-05-04 13:21 | 40.85782 | -84.14198 | 29960 ft | 464 kts | 209° |
| 2026-05-04 13:21 | 40.82850 | -84.15981 | 30328 ft | 463 kts | 208° |
| 2026-05-04 13:21 | 40.80154 | -84.17586 | 30686 ft | 462 kts | 208° |
| 2026-05-04 13:21 | 40.77129 | -84.19373 | 31099 ft | 461 kts | 208° |
| 2026-05-04 13:22 | 40.74208 | -84.21103 | 31508 ft | 460 kts | 208° |
| 2026-05-04 13:22 | 40.71293 | -84.22841 | 31938 ft | 458 kts | 209° |
| 2026-05-04 13:22 | 40.68401 | -84.24576 | 32393 ft | 457 kts | 209° |
| 2026-05-04 13:22 | 40.65515 | -84.26314 | 32861 ft | 455 kts | 209° |
| 2026-05-04 13:23 | 40.62640 | -84.28044 | 33340 ft | 453 kts | 210° |
| 2026-05-04 13:23 | 40.59778 | -84.29760 | 33826 ft | 452 kts | 210° |
| 2026-05-04 13:23 | 40.56886 | -84.31490 | 34248 ft | 451 kts | 210° |
| 2026-05-04 13:23 | 40.53989 | -84.33220 | 34664 ft | 450 kts | 210° |
| 2026-05-04 13:24 | 40.51113 | -84.34949 | 35070 ft | 448 kts | 212° |
| 2026-05-04 13:24 | 40.48463 | -84.37138 | 35459 ft | 441 kts | 222° |
| 2026-05-04 13:24 | 40.46074 | -84.39642 | 35853 ft | 436 kts | 230° |
| 2026-05-04 13:25 | 40.42757 | -84.46131 | 36573 ft | 422 kts | 251° |
| 2026-05-04 13:25 | 40.41700 | -84.49701 | 36931 ft | 421 kts | 253° |
| 2026-05-04 13:25 | 40.40621 | -84.53287 | 37289 ft | 422 kts | 252° |
| 2026-05-04 13:25 | 40.39507 | -84.56850 | 37652 ft | 422 kts | 251° |
| 2026-05-04 13:26 | 40.38377 | -84.60405 | 37838 ft | 424 kts | 251° |
| 2026-05-04 13:26 | 40.37191 | -84.64115 | 37876 ft | 424 kts | 251° |
| 2026-05-04 13:26 | 40.34946 | -84.71191 | 37859 ft | 423 kts | 251° |
| 2026-05-04 13:27 | 40.32685 | -84.78369 | 37844 ft | 423 kts | 252° |
| 2026-05-04 13:27 | 40.30435 | -84.85536 | 37847 ft | 422 kts | 251° |
| 2026-05-04 13:28 | 40.28199 | -84.92647 | 37845 ft | 422 kts | 251° |
| 2026-05-04 13:28 | 40.25954 | -84.99754 | 37847 ft | 423 kts | 251° |
| 2026-05-04 13:29 | 40.23684 | -85.06917 | 37846 ft | 423 kts | 251° |
| 2026-05-04 13:29 | 40.21410 | -85.14073 | 37842 ft | 423 kts | 251° |
| 2026-05-04 13:30 | 40.19126 | -85.21228 | 37858 ft | 423 kts | 251° |
| 2026-05-04 13:30 | 40.16855 | -85.28331 | 37865 ft | 423 kts | 251° |
| 2026-05-04 13:31 | 40.14587 | -85.35418 | 37860 ft | 423 kts | 251° |
| 2026-05-04 13:31 | 40.12324 | -85.42468 | 37862 ft | 423 kts | 251° |
| 2026-05-04 13:32 | 40.10406 | -85.48407 | 37868 ft | 423 kts | 251° |
| 2026-05-04 13:32 | 40.08125 | -85.55457 | 37872 ft | 423 kts | 251° |
| 2026-05-04 13:33 | 40.05822 | -85.62573 | 37869 ft | 422 kts | 251° |
| 2026-05-04 13:33 | 40.03533 | -85.69630 | 37867 ft | 422 kts | 251° |
| 2026-05-04 13:34 | 40.01243 | -85.76687 | 37863 ft | 422 kts | 251° |
| 2026-05-04 13:34 | 39.98946 | -85.83728 | 37871 ft | 422 kts | 251° |
| 2026-05-04 13:35 | 39.95493 | -85.94278 | 37873 ft | 422 kts | 251° |
| 2026-05-04 13:36 | 39.93190 | -86.01310 | 37868 ft | 421 kts | 251° |
| 2026-05-04 13:36 | 39.90886 | -86.08322 | 37869 ft | 421 kts | 250° |
| 2026-05-04 13:37 | 39.88569 | -86.15332 | 37865 ft | 421 kts | 250° |
| 2026-05-04 13:37 | 39.86250 | -86.22339 | 37863 ft | 421 kts | 251° |
| 2026-05-04 13:38 | 39.83934 | -86.29338 | 37866 ft | 421 kts | 251° |
| 2026-05-04 13:38 | 39.81955 | -86.36455 | 37870 ft | 415 kts | 262° |
| 2026-05-04 13:39 | 39.81622 | -86.43867 | 37873 ft | 411 kts | 274° |
| 2026-05-04 13:39 | 39.81796 | -86.51291 | 37860 ft | 411 kts | 274° |
| 2026-05-04 13:40 | 39.81942 | -86.58777 | 37852 ft | 411 kts | 273° |
| 2026-05-04 13:40 | 39.82081 | -86.66202 | 37858 ft | 411 kts | 273° |
| 2026-05-04 13:41 | 39.82222 | -86.73639 | 37860 ft | 411 kts | 274° |
| 2026-05-04 13:41 | 39.82358 | -86.81070 | 37856 ft | 411 kts | 273° |
| 2026-05-04 13:42 | 39.82548 | -86.92227 | 37854 ft | 411 kts | 273° |
| 2026-05-04 13:42 | 39.82667 | -86.99661 | 37859 ft | 411 kts | 273° |
| 2026-05-04 13:43 | 39.82792 | -87.07102 | 37857 ft | 411 kts | 273° |
| 2026-05-04 13:43 | 39.82910 | -87.14536 | 37853 ft | 411 kts | 273° |
| 2026-05-04 13:44 | 39.83021 | -87.21974 | 37847 ft | 411 kts | 273° |
| 2026-05-04 13:44 | 39.83123 | -87.29400 | 37842 ft | 411 kts | 273° |
| 2026-05-04 13:45 | 39.83227 | -87.36891 | 37844 ft | 411 kts | 273° |
| 2026-05-04 13:45 | 39.83326 | -87.44379 | 37851 ft | 411 kts | 273° |
| 2026-05-04 13:46 | 39.83419 | -87.51866 | 37854 ft | 411 kts | 273° |
| 2026-05-04 13:46 | 39.83503 | -87.59300 | 37858 ft | 411 kts | 273° |
| 2026-05-04 13:47 | 39.83582 | -87.66738 | 37858 ft | 411 kts | 273° |
| 2026-05-04 13:47 | 39.83654 | -87.74175 | 37856 ft | 411 kts | 273° |
| 2026-05-04 13:48 | 39.83721 | -87.81658 | 37853 ft | 411 kts | 273° |
| 2026-05-04 13:48 | 39.83792 | -87.89046 | 37844 ft | 411 kts | 273° |
| 2026-05-04 13:49 | 39.83863 | -87.96520 | 37837 ft | 410 kts | 273° |
| 2026-05-04 13:49 | 39.83921 | -88.03942 | 37824 ft | 410 kts | 273° |
| 2026-05-04 13:50 | 39.83971 | -88.11366 | 37823 ft | 411 kts | 273° |
| 2026-05-04 13:50 | 39.84016 | -88.18799 | 37826 ft | 411 kts | 273° |
| 2026-05-04 13:51 | 39.84060 | -88.26226 | 37823 ft | 410 kts | 272° |
| 2026-05-04 13:51 | 39.84097 | -88.33651 | 37823 ft | 411 kts | 272° |
| 2026-05-04 13:52 | 39.84147 | -88.44800 | 37829 ft | 411 kts | 272° |
| 2026-05-04 13:53 | 39.84179 | -88.52236 | 37826 ft | 411 kts | 272° |
| 2026-05-04 13:53 | 39.84211 | -88.59717 | 37834 ft | 411 kts | 272° |
| 2026-05-04 13:54 | 39.84226 | -88.70875 | 37835 ft | 411 kts | 272° |
| 2026-05-04 13:55 | 39.84232 | -88.82026 | 37836 ft | 411 kts | 272° |
| 2026-05-04 13:55 | 39.84241 | -88.93169 | 37838 ft | 411 kts | 272° |
| 2026-05-04 13:56 | 39.84235 | -89.00598 | 37835 ft | 410 kts | 272° |
| 2026-05-04 13:57 | 39.84211 | -89.11727 | 37825 ft | 410 kts | 272° |
| 2026-05-04 13:58 | 39.84177 | -89.25555 | 37816 ft | 410 kts | 272° |
| 2026-05-04 13:58 | 39.84142 | -89.36722 | 37804 ft | 409 kts | 272° |
| 2026-05-04 13:59 | 39.84111 | -89.44126 | 37802 ft | 410 kts | 272° |
| 2026-05-04 14:00 | 39.84054 | -89.55195 | 37799 ft | 409 kts | 271° |
| 2026-05-04 14:00 | 39.83980 | -89.66299 | 37784 ft | 409 kts | 271° |
| 2026-05-04 14:01 | 39.83458 | -89.73742 | 37777 ft | 411 kts | 266° |
| 2026-05-04 14:02 | 39.82471 | -89.84823 | 37784 ft | 411 kts | 266° |
| 2026-05-04 14:02 | 39.81811 | -89.92199 | 37794 ft | 411 kts | 266° |
| 2026-05-04 14:03 | 39.81150 | -89.99583 | 37800 ft | 411 kts | 266° |
| 2026-05-04 14:03 | 39.80492 | -90.06930 | 37803 ft | 411 kts | 266° |
| 2026-05-04 14:04 | 39.79483 | -90.18046 | 37809 ft | 411 kts | 266° |
| 2026-05-04 14:04 | 39.78804 | -90.25418 | 37806 ft | 411 kts | 266° |
| 2026-05-04 14:05 | 39.77784 | -90.36470 | 37822 ft | 410 kts | 266° |
| 2026-05-04 14:06 | 39.77101 | -90.43833 | 37802 ft | 410 kts | 265° |
| 2026-05-04 14:06 | 39.76412 | -90.51125 | 37793 ft | 409 kts | 265° |
| 2026-05-04 14:07 | 39.75714 | -90.58454 | 37796 ft | 408 kts | 265° |
| 2026-05-04 14:07 | 39.75016 | -90.65764 | 37799 ft | 408 kts | 265° |
| 2026-05-04 14:08 | 39.74318 | -90.73070 | 37806 ft | 407 kts | 265° |
| 2026-05-04 14:08 | 39.73615 | -90.80371 | 37811 ft | 407 kts | 265° |
| 2026-05-04 14:09 | 39.72541 | -90.91343 | 37794 ft | 406 kts | 265° |
| 2026-05-04 14:09 | 39.72185 | -90.94970 | 38007 ft | 406 kts | 265° |
| 2026-05-04 14:10 | 39.71467 | -91.02213 | 38015 ft | 406 kts | 265° |
| 2026-05-04 14:10 | 39.70736 | -91.09538 | 38017 ft | 406 kts | 265° |
| 2026-05-04 14:11 | 39.70017 | -91.16811 | 38008 ft | 407 kts | 265° |
| 2026-05-04 14:11 | 39.68925 | -91.27742 | 37774 ft | 407 kts | 265° |
| 2026-05-04 14:12 | 39.68182 | -91.35030 | 37796 ft | 407 kts | 265° |
| 2026-05-04 14:13 | 39.67059 | -91.45995 | 37789 ft | 407 kts | 265° |
| 2026-05-04 14:13 | 39.66321 | -91.53285 | 37790 ft | 407 kts | 265° |
| 2026-05-04 14:14 | 39.65570 | -91.60520 | 37781 ft | 407 kts | 264° |
| 2026-05-04 14:14 | 39.64420 | -91.71472 | 37773 ft | 407 kts | 264° |
| 2026-05-04 14:15 | 39.62885 | -91.86019 | 37758 ft | 407 kts | 264° |
| 2026-05-04 14:16 | 39.61715 | -91.96885 | 37761 ft | 407 kts | 264° |
| 2026-05-04 14:17 | 39.60536 | -92.07784 | 37767 ft | 407 kts | 264° |
| 2026-05-04 14:18 | 39.59353 | -92.18689 | 37774 ft | 407 kts | 264° |
| 2026-05-04 14:19 | 39.57752 | -92.33225 | 37786 ft | 407 kts | 264° |
| 2026-05-04 14:19 | 39.56945 | -92.40489 | 37791 ft | 407 kts | 264° |
| 2026-05-04 14:20 | 39.56136 | -92.47755 | 37784 ft | 407 kts | 264° |
| 2026-05-04 14:20 | 39.55315 | -92.55019 | 37782 ft | 408 kts | 264° |
| 2026-05-04 14:21 | 39.54070 | -92.65967 | 37781 ft | 407 kts | 264° |
| 2026-05-04 14:21 | 39.53246 | -92.73223 | 37772 ft | 407 kts | 264° |
| 2026-05-04 14:22 | 39.52414 | -92.80472 | 37767 ft | 407 kts | 264° |
| 2026-05-04 14:22 | 39.51578 | -92.87730 | 37764 ft | 407 kts | 264° |
| 2026-05-04 14:23 | 39.50315 | -92.98623 | 37762 ft | 408 kts | 264° |
| 2026-05-04 14:24 | 39.49466 | -93.05932 | 37760 ft | 408 kts | 264° |
| 2026-05-04 14:24 | 39.48614 | -93.13178 | 37761 ft | 408 kts | 264° |
| 2026-05-04 14:25 | 39.47747 | -93.20491 | 37763 ft | 408 kts | 264° |
| 2026-05-04 14:25 | 39.46589 | -93.30248 | 37759 ft | 408 kts | 264° |
| 2026-05-04 14:26 | 39.45723 | -93.37505 | 37753 ft | 408 kts | 264° |
| 2026-05-04 14:26 | 39.44834 | -93.44842 | 37755 ft | 407 kts | 264° |
| 2026-05-04 14:27 | 39.43958 | -93.52080 | 37752 ft | 407 kts | 264° |
| 2026-05-04 14:27 | 39.43083 | -93.59319 | 37746 ft | 407 kts | 264° |
| 2026-05-04 14:28 | 39.42196 | -93.66547 | 37739 ft | 407 kts | 264° |
| 2026-05-04 14:28 | 39.41304 | -93.73756 | 37743 ft | 406 kts | 264° |
| 2026-05-04 14:29 | 39.39527 | -93.88128 | 37740 ft | 406 kts | 264° |
| 2026-05-04 14:30 | 39.38624 | -93.95320 | 37738 ft | 405 kts | 264° |
| 2026-05-04 14:31 | 39.37266 | -94.06104 | 37750 ft | 405 kts | 264° |
| 2026-05-04 14:32 | 39.35450 | -94.20482 | 37767 ft | 406 kts | 264° |
| 2026-05-04 14:32 | 39.34529 | -94.27681 | 37763 ft | 406 kts | 264° |
| 2026-05-04 14:33 | 39.33599 | -94.34873 | 37767 ft | 406 kts | 264° |
| 2026-05-04 14:33 | 39.32671 | -94.42050 | 37761 ft | 405 kts | 264° |
| 2026-05-04 14:34 | 39.31745 | -94.49225 | 37752 ft | 405 kts | 264° |
| 2026-05-04 14:34 | 39.30815 | -94.56383 | 37748 ft | 405 kts | 264° |
| 2026-05-04 14:35 | 39.29871 | -94.63541 | 37760 ft | 404 kts | 264° |
| 2026-05-04 14:35 | 39.28925 | -94.70697 | 37750 ft | 404 kts | 264° |
| 2026-05-04 14:36 | 39.28010 | -94.77850 | 37752 ft | 403 kts | 265° |
| 2026-05-04 14:36 | 39.27218 | -94.85002 | 37749 ft | 402 kts | 266° |
| 2026-05-04 14:37 | 39.26439 | -94.92195 | 37742 ft | 402 kts | 265° |
| 2026-05-04 14:37 | 39.25630 | -94.99322 | 37738 ft | 402 kts | 265° |
| 2026-05-04 14:38 | 39.24804 | -95.06449 | 37737 ft | 401 kts | 265° |
| 2026-05-04 14:38 | 39.23986 | -95.13565 | 37742 ft | 401 kts | 265° |
| 2026-05-04 14:39 | 39.23174 | -95.20679 | 37743 ft | 401 kts | 265° |
| 2026-05-04 14:39 | 39.22348 | -95.27788 | 37744 ft | 401 kts | 265° |
| 2026-05-04 14:40 | 39.21097 | -95.38428 | 37737 ft | 400 kts | 265° |
| 2026-05-04 14:40 | 39.20261 | -95.45517 | 37743 ft | 400 kts | 265° |
| 2026-05-04 14:41 | 39.19417 | -95.52599 | 37745 ft | 399 kts | 265° |
| 2026-05-04 14:42 | 39.17729 | -95.66732 | 37750 ft | 399 kts | 265° |
| 2026-05-04 14:42 | 39.16879 | -95.73782 | 37748 ft | 398 kts | 265° |
| 2026-05-04 14:43 | 39.16018 | -95.80830 | 37742 ft | 398 kts | 265° |
| 2026-05-04 14:43 | 39.15165 | -95.87868 | 37733 ft | 397 kts | 265° |
| 2026-05-04 14:44 | 39.14311 | -95.94898 | 37727 ft | 397 kts | 265° |
| 2026-05-04 14:44 | 39.13451 | -96.01920 | 37717 ft | 397 kts | 265° |
| 2026-05-04 14:45 | 39.12583 | -96.08930 | 37715 ft | 397 kts | 265° |
| 2026-05-04 14:45 | 39.11706 | -96.15948 | 37714 ft | 397 kts | 265° |
| 2026-05-04 14:46 | 39.10827 | -96.22943 | 37715 ft | 397 kts | 265° |
| 2026-05-04 14:46 | 39.09946 | -96.29980 | 37723 ft | 397 kts | 265° |
| 2026-05-04 14:47 | 39.09066 | -96.36992 | 37731 ft | 396 kts | 265° |
| 2026-05-04 14:47 | 39.08175 | -96.43992 | 37736 ft | 396 kts | 265° |
| 2026-05-04 14:48 | 39.07279 | -96.50984 | 37738 ft | 396 kts | 265° |
| 2026-05-04 14:48 | 39.06381 | -96.57987 | 37743 ft | 396 kts | 265° |
| 2026-05-04 14:49 | 39.05483 | -96.64968 | 37742 ft | 396 kts | 265° |
| 2026-05-04 14:49 | 39.04586 | -96.71949 | 37733 ft | 395 kts | 265° |
| 2026-05-04 14:50 | 39.03681 | -96.78931 | 37730 ft | 396 kts | 265° |
| 2026-05-04 14:50 | 39.02763 | -96.85902 | 37733 ft | 395 kts | 265° |
| 2026-05-04 14:51 | 39.01843 | -96.92877 | 37734 ft | 395 kts | 265° |
| 2026-05-04 14:51 | 39.00924 | -96.99839 | 37722 ft | 395 kts | 265° |
| 2026-05-04 14:52 | 38.99999 | -97.06802 | 37722 ft | 395 kts | 265° |
| 2026-05-04 14:52 | 38.99073 | -97.13754 | 37708 ft | 395 kts | 265° |
| 2026-05-04 14:53 | 38.98149 | -97.20700 | 37709 ft | 395 kts | 265° |
| 2026-05-04 14:53 | 38.97217 | -97.27646 | 37707 ft | 394 kts | 265° |
| 2026-05-04 14:54 | 38.96281 | -97.34579 | 37712 ft | 393 kts | 265° |
| 2026-05-04 14:54 | 38.95343 | -97.41495 | 37741 ft | 393 kts | 265° |
| 2026-05-04 14:55 | 38.94405 | -97.48399 | 37747 ft | 392 kts | 265° |
| 2026-05-04 14:55 | 38.93465 | -97.55277 | 37757 ft | 391 kts | 265° |
| 2026-05-04 14:56 | 38.92519 | -97.62131 | 37762 ft | 389 kts | 265° |
| 2026-05-04 14:56 | 38.91646 | -97.68976 | 37766 ft | 387 kts | 266° |
| 2026-05-04 14:57 | 38.90835 | -97.75796 | 37764 ft | 386 kts | 266° |
| 2026-05-04 14:57 | 38.90023 | -97.82601 | 37756 ft | 385 kts | 266° |
| 2026-05-04 14:58 | 38.89193 | -97.89385 | 37746 ft | 384 kts | 266° |
| 2026-05-04 14:58 | 38.88490 | -97.95009 | 37738 ft | 383 kts | 266° |
| 2026-05-04 14:59 | 38.87509 | -98.02893 | 37726 ft | 382 kts | 266° |
| 2026-05-04 15:00 | 38.86253 | -98.12964 | 37714 ft | 381 kts | 266° |
| 2026-05-04 15:00 | 38.85557 | -98.18538 | 37717 ft | 380 kts | 266° |
| 2026-05-04 15:01 | 38.84294 | -98.28546 | 37714 ft | 378 kts | 266° |
| 2026-05-04 15:01 | 38.83448 | -98.35189 | 37716 ft | 377 kts | 266° |
| 2026-05-04 15:02 | 38.82601 | -98.41812 | 37736 ft | 376 kts | 266° |
| 2026-05-04 15:02 | 38.81755 | -98.48409 | 37739 ft | 375 kts | 266° |
| 2026-05-04 15:03 | 38.80911 | -98.54990 | 37746 ft | 373 kts | 266° |
| 2026-05-04 15:03 | 38.80066 | -98.61545 | 37756 ft | 372 kts | 266° |
| 2026-05-04 15:04 | 38.79219 | -98.68090 | 37759 ft | 371 kts | 266° |
| 2026-05-04 15:04 | 38.78364 | -98.74609 | 37764 ft | 370 kts | 266° |
| 2026-05-04 15:05 | 38.77509 | -98.81107 | 37765 ft | 369 kts | 266° |
| 2026-05-04 15:05 | 38.76654 | -98.87585 | 37763 ft | 368 kts | 266° |
| 2026-05-04 15:06 | 38.75797 | -98.94050 | 37757 ft | 367 kts | 266° |
| 2026-05-04 15:07 | 38.74516 | -99.03711 | 37766 ft | 366 kts | 266° |
| 2026-05-04 15:07 | 38.73656 | -99.10135 | 37776 ft | 366 kts | 266° |
| 2026-05-04 15:08 | 38.72792 | -99.16549 | 37778 ft | 365 kts | 266° |
| 2026-05-04 15:08 | 38.71922 | -99.22945 | 37788 ft | 364 kts | 266° |
| 2026-05-04 15:09 | 38.71059 | -99.29335 | 37781 ft | 364 kts | 266° |
| 2026-05-04 15:09 | 38.70192 | -99.35711 | 37778 ft | 363 kts | 266° |
| 2026-05-04 15:10 | 38.68887 | -99.45262 | 37765 ft | 363 kts | 266° |
| 2026-05-04 15:11 | 38.67568 | -99.54799 | 37749 ft | 363 kts | 266° |
| 2026-05-04 15:11 | 38.66689 | -99.61150 | 37742 ft | 362 kts | 266° |
| 2026-05-04 15:12 | 38.65819 | -99.67494 | 37735 ft | 362 kts | 266° |
| 2026-05-04 15:12 | 38.64933 | -99.73830 | 37735 ft | 362 kts | 265° |
| 2026-05-04 15:13 | 38.64040 | -99.80160 | 37736 ft | 362 kts | 265° |
| 2026-05-04 15:13 | 38.63148 | -99.86498 | 37733 ft | 362 kts | 265° |
| 2026-05-04 15:14 | 38.62248 | -99.92820 | 37728 ft | 361 kts | 265° |
| 2026-05-04 15:14 | 38.61353 | -99.99137 | 37732 ft | 361 kts | 265° |
| 2026-05-04 15:15 | 38.60459 | -100.05459 | 37732 ft | 361 kts | 265° |
| 2026-05-04 15:15 | 38.59563 | -100.11769 | 37730 ft | 361 kts | 265° |
| 2026-05-04 15:16 | 38.58202 | -100.21231 | 37731 ft | 361 kts | 265° |
| 2026-05-04 15:17 | 38.56825 | -100.30685 | 37733 ft | 361 kts | 265° |
| 2026-05-04 15:17 | 38.55457 | -100.40128 | 37734 ft | 360 kts | 265° |
| 2026-05-04 15:18 | 38.54548 | -100.46429 | 37740 ft | 360 kts | 265° |
| 2026-05-04 15:19 | 38.53169 | -100.55824 | 37765 ft | 360 kts | 264° |
| 2026-05-04 15:19 | 38.51772 | -100.65257 | 37785 ft | 360 kts | 264° |
| 2026-05-04 15:20 | 38.50838 | -100.71544 | 37801 ft | 360 kts | 264° |
| 2026-05-04 15:20 | 38.49901 | -100.77835 | 37814 ft | 360 kts | 264° |
| 2026-05-04 15:21 | 38.48964 | -100.84104 | 37817 ft | 361 kts | 264° |
| 2026-05-04 15:22 | 38.47542 | -100.93543 | 37815 ft | 361 kts | 264° |
| 2026-05-04 15:22 | 38.46119 | -101.02959 | 37809 ft | 360 kts | 264° |
| 2026-05-04 15:23 | 38.45167 | -101.09248 | 37791 ft | 360 kts | 264° |
| 2026-05-04 15:23 | 38.44209 | -101.15527 | 37778 ft | 360 kts | 264° |
| 2026-05-04 15:24 | 38.42287 | -101.28073 | 37743 ft | 360 kts | 264° |
| 2026-05-04 15:25 | 38.41321 | -101.34341 | 37736 ft | 360 kts | 264° |
| 2026-05-04 15:26 | 38.39856 | -101.43773 | 37742 ft | 360 kts | 263° |
| 2026-05-04 15:26 | 38.38399 | -101.53145 | 37745 ft | 359 kts | 263° |
| 2026-05-04 15:27 | 38.36929 | -101.62507 | 37744 ft | 359 kts | 263° |
| 2026-05-04 15:28 | 38.35464 | -101.71846 | 37751 ft | 358 kts | 263° |
| 2026-05-04 15:29 | 38.33987 | -101.81160 | 37746 ft | 357 kts | 263° |
| 2026-05-04 15:30 | 38.30519 | -102.02800 | 37749 ft | 355 kts | 263° |
| 2026-05-04 15:31 | 38.29026 | -102.12031 | 37754 ft | 355 kts | 263° |
| 2026-05-04 15:32 | 38.26544 | -102.27383 | 37758 ft | 354 kts | 263° |
| 2026-05-04 15:34 | 38.24031 | -102.42650 | 37796 ft | 352 kts | 263° |
| 2026-05-04 15:34 | 38.22524 | -102.51779 | 37823 ft | 351 kts | 263° |
| 2026-05-04 15:35 | 38.21015 | -102.60887 | 37848 ft | 351 kts | 263° |
| 2026-05-04 15:36 | 38.19409 | -102.69949 | 37854 ft | 353 kts | 258° |
| 2026-05-04 15:36 | 38.17895 | -102.75880 | 37855 ft | 352 kts | 258° |
| 2026-05-04 15:37 | 38.16369 | -102.81799 | 37851 ft | 352 kts | 258° |
| 2026-05-04 15:37 | 38.14850 | -102.87704 | 37841 ft | 351 kts | 258° |
| 2026-05-04 15:38 | 38.13336 | -102.93597 | 37813 ft | 351 kts | 258° |
| 2026-05-04 15:38 | 38.11821 | -102.99484 | 37806 ft | 350 kts | 258° |
| 2026-05-04 15:39 | 38.10302 | -103.05367 | 37780 ft | 350 kts | 258° |
| 2026-05-04 15:40 | 38.08283 | -103.13177 | 37788 ft | 350 kts | 258° |
| 2026-05-04 15:40 | 38.06511 | -103.20019 | 37818 ft | 349 kts | 258° |
| 2026-05-04 15:41 | 38.04989 | -103.25860 | 37844 ft | 348 kts | 258° |
| 2026-05-04 15:41 | 38.03724 | -103.30701 | 37865 ft | 348 kts | 258° |
| 2026-05-04 15:42 | 38.02186 | -103.36563 | 37893 ft | 347 kts | 258° |
| 2026-05-04 15:42 | 38.00652 | -103.42407 | 37911 ft | 347 kts | 258° |
| 2026-05-04 15:43 | 37.99128 | -103.48209 | 37909 ft | 346 kts | 258° |
| 2026-05-04 15:43 | 37.97609 | -103.53989 | 37907 ft | 345 kts | 258° |
| 2026-05-04 15:44 | 37.96088 | -103.59756 | 37894 ft | 345 kts | 258° |
| 2026-05-04 15:44 | 37.94561 | -103.65520 | 37863 ft | 345 kts | 258° |
| 2026-05-04 15:45 | 37.93035 | -103.71274 | 37834 ft | 344 kts | 258° |
| 2026-05-04 15:45 | 37.91511 | -103.77013 | 37806 ft | 344 kts | 257° |
| 2026-05-04 15:46 | 37.89990 | -103.82746 | 37772 ft | 343 kts | 257° |
| 2026-05-04 15:46 | 37.88460 | -103.88462 | 37741 ft | 343 kts | 257° |
| 2026-05-04 15:47 | 37.86933 | -103.94178 | 37727 ft | 342 kts | 257° |
| 2026-05-04 15:47 | 37.85406 | -103.99880 | 37729 ft | 342 kts | 257° |
| 2026-05-04 15:48 | 37.83872 | -104.05576 | 37731 ft | 342 kts | 257° |
| 2026-05-04 15:48 | 37.81569 | -104.14104 | 37738 ft | 341 kts | 257° |
| 2026-05-04 15:49 | 37.80047 | -104.19743 | 37738 ft | 341 kts | 257° |
| 2026-05-04 15:49 | 37.78503 | -104.25459 | 37741 ft | 341 kts | 257° |
| 2026-05-04 15:50 | 37.76964 | -104.31129 | 37748 ft | 341 kts | 257° |
| 2026-05-04 15:50 | 37.75435 | -104.36755 | 37752 ft | 341 kts | 257° |
| 2026-05-04 15:51 | 37.73895 | -104.42414 | 37751 ft | 341 kts | 257° |
| 2026-05-04 15:51 | 37.72347 | -104.48069 | 37764 ft | 341 kts | 257° |
| 2026-05-04 15:52 | 37.70802 | -104.53719 | 37764 ft | 341 kts | 257° |
| 2026-05-04 15:52 | 37.69241 | -104.59412 | 37766 ft | 341 kts | 257° |
| 2026-05-04 15:53 | 37.67696 | -104.65024 | 37780 ft | 341 kts | 257° |
| 2026-05-04 15:53 | 37.66126 | -104.70707 | 37778 ft | 340 kts | 257° |
| 2026-05-04 15:54 | 37.64579 | -104.76314 | 37784 ft | 340 kts | 257° |
| 2026-05-04 15:54 | 37.63025 | -104.81953 | 37788 ft | 341 kts | 257° |
| 2026-05-04 15:55 | 37.61446 | -104.87627 | 37802 ft | 341 kts | 256° |
| 2026-05-04 15:55 | 37.59885 | -104.93228 | 37815 ft | 341 kts | 257° |
| 2026-05-04 15:56 | 37.58315 | -104.98871 | 37837 ft | 341 kts | 257° |
| 2026-05-04 15:56 | 37.56745 | -105.04511 | 37861 ft | 341 kts | 257° |
| 2026-05-04 15:57 | 37.55169 | -105.10144 | 37872 ft | 340 kts | 257° |
| 2026-05-04 15:57 | 37.53593 | -105.15765 | 37899 ft | 340 kts | 257° |
| 2026-05-04 15:58 | 37.52019 | -105.21374 | 37915 ft | 340 kts | 257° |
| 2026-05-04 15:58 | 37.50439 | -105.26982 | 37915 ft | 339 kts | 257° |
| 2026-05-04 15:59 | 37.48863 | -105.32578 | 37921 ft | 339 kts | 257° |
| 2026-05-04 15:59 | 37.47294 | -105.38159 | 37933 ft | 338 kts | 257° |
| 2026-05-04 16:00 | 37.45716 | -105.43739 | 37943 ft | 338 kts | 257° |
| 2026-05-04 16:00 | 37.44142 | -105.49303 | 37981 ft | 337 kts | 257° |
| 2026-05-04 16:01 | 37.42560 | -105.54851 | 38012 ft | 337 kts | 256° |
| 2026-05-04 16:01 | 37.40974 | -105.60403 | 38040 ft | 337 kts | 257° |
| 2026-05-04 16:02 | 37.39395 | -105.65939 | 38086 ft | 336 kts | 257° |
| 2026-05-04 16:03 | 37.37025 | -105.74234 | 38115 ft | 336 kts | 257° |
| 2026-05-04 16:03 | 37.35436 | -105.79764 | 38129 ft | 336 kts | 257° |
| 2026-05-04 16:04 | 37.33896 | -105.85346 | 38126 ft | 335 kts | 258° |
| 2026-05-04 16:04 | 37.31824 | -105.93723 | 38087 ft | 335 kts | 258° |
| 2026-05-04 16:05 | 37.30432 | -105.99313 | 38065 ft | 335 kts | 258° |
| 2026-05-04 16:06 | 37.28311 | -106.07690 | 38011 ft | 336 kts | 258° |
| 2026-05-04 16:07 | 37.25451 | -106.18890 | 37957 ft | 337 kts | 258° |
| 2026-05-04 16:08 | 37.22578 | -106.30127 | 37935 ft | 339 kts | 258° |
| 2026-05-04 16:09 | 37.18957 | -106.44186 | 37964 ft | 340 kts | 258° |
| 2026-05-04 16:10 | 37.16048 | -106.55451 | 37969 ft | 339 kts | 258° |
| 2026-05-04 16:11 | 37.13132 | -106.66706 | 37983 ft | 340 kts | 257° |
| 2026-05-04 16:12 | 37.08714 | -106.83615 | 38017 ft | 341 kts | 257° |
| 2026-05-04 16:13 | 37.05750 | -106.94918 | 38031 ft | 342 kts | 257° |
| 2026-05-04 16:14 | 37.02762 | -107.06244 | 38015 ft | 343 kts | 257° |
| 2026-05-04 16:16 | 36.99016 | -107.20414 | 37971 ft | 345 kts | 257° |
| 2026-05-04 16:17 | 36.95205 | -107.34701 | 37934 ft | 346 kts | 256° |
| 2026-05-04 16:18 | 36.92406 | -107.45171 | 37949 ft | 347 kts | 256° |
| 2026-05-04 16:19 | 36.88551 | -107.59492 | 37974 ft | 349 kts | 256° |
| 2026-05-04 16:20 | 36.84672 | -107.73866 | 37968 ft | 350 kts | 256° |
| 2026-05-04 16:22 | 36.80750 | -107.88265 | 37976 ft | 351 kts | 256° |
| 2026-05-04 16:23 | 36.76012 | -108.05590 | 38054 ft | 351 kts | 256° |
| 2026-05-04 16:25 | 36.72392 | -108.23187 | 38074 ft | 349 kts | 260° |
| 2026-05-04 16:26 | 36.68574 | -108.43816 | 37971 ft | 350 kts | 260° |
| 2026-05-04 16:27 | 36.67494 | -108.49614 | 37975 ft | 338 kts | 260° |
| 2026-05-04 16:28 | 36.65903 | -108.58122 | 37924 ft | 336 kts | 260° |
| 2026-05-04 16:29 | 36.62177 | -108.77916 | 37867 ft | 336 kts | 260° |
| 2026-05-04 16:31 | 36.59481 | -108.92074 | 37881 ft | 337 kts | 260° |
| 2026-05-04 16:32 | 36.56227 | -109.09067 | 37886 ft | 337 kts | 259° |
| 2026-05-04 16:33 | 36.54052 | -109.20394 | 37887 ft | 337 kts | 259° |
| 2026-05-04 16:34 | 36.52403 | -109.28881 | 37891 ft | 337 kts | 259° |
| 2026-05-04 16:35 | 36.49088 | -109.45857 | 37881 ft | 337 kts | 259° |
| 2026-05-04 16:36 | 36.47438 | -109.54341 | 37882 ft | 337 kts | 259° |
| 2026-05-04 16:37 | 36.45766 | -109.62831 | 37877 ft | 337 kts | 259° |
| 2026-05-04 16:38 | 36.43528 | -109.74146 | 37877 ft | 337 kts | 259° |
| 2026-05-04 16:39 | 36.40708 | -109.88312 | 37881 ft | 337 kts | 259° |
| 2026-05-04 16:40 | 36.38447 | -109.99595 | 37883 ft | 337 kts | 259° |
| 2026-05-04 16:41 | 36.35601 | -110.13758 | 37882 ft | 337 kts | 258° |
| 2026-05-04 16:43 | 36.32744 | -110.27851 | 37891 ft | 337 kts | 258° |
| 2026-05-04 16:43 | 36.31015 | -110.36314 | 37889 ft | 337 kts | 258° |
| 2026-05-04 16:45 | 36.27558 | -110.53223 | 37896 ft | 338 kts | 258° |
| 2026-05-04 16:46 | 36.24648 | -110.67306 | 37901 ft | 337 kts | 258° |
| 2026-05-04 16:47 | 36.22320 | -110.78500 | 37900 ft | 337 kts | 258° |
| 2026-05-04 16:48 | 36.19963 | -110.89812 | 37901 ft | 337 kts | 257° |
| 2026-05-04 16:49 | 36.17615 | -111.01052 | 37899 ft | 337 kts | 257° |
| 2026-05-04 16:50 | 36.15252 | -111.12230 | 37902 ft | 337 kts | 257° |
| 2026-05-04 16:51 | 36.13470 | -111.20639 | 37895 ft | 337 kts | 257° |
| 2026-05-04 16:52 | 36.11296 | -111.30932 | 37884 ft | 336 kts | 257° |
| 2026-05-04 16:53 | 36.09556 | -111.39338 | 37880 ft | 337 kts | 257° |
| 2026-05-04 16:54 | 36.07205 | -111.50539 | 37874 ft | 337 kts | 257° |
| 2026-05-04 16:55 | 36.03669 | -111.67343 | 37879 ft | 337 kts | 256° |
| 2026-05-04 16:56 | 36.00707 | -111.81335 | 37975 ft | 337 kts | 256° |
| 2026-05-04 16:57 | 35.98919 | -111.89701 | 38045 ft | 337 kts | 256° |
| 2026-05-04 16:58 | 35.96529 | -112.00889 | 38100 ft | 337 kts | 256° |
| 2026-05-04 17:00 | 35.92912 | -112.17678 | 38117 ft | 336 kts | 256° |
| 2026-05-04 17:01 | 35.89897 | -112.31568 | 38057 ft | 336 kts | 255° |
| 2026-05-04 17:02 | 35.87469 | -112.42691 | 37986 ft | 336 kts | 255° |
| 2026-05-04 17:03 | 35.85650 | -112.51023 | 37922 ft | 336 kts | 255° |
| 2026-05-04 17:03 | 35.83819 | -112.59351 | 37881 ft | 336 kts | 255° |
| 2026-05-04 17:04 | 35.81368 | -112.70463 | 37880 ft | 336 kts | 255° |
| 2026-05-04 17:05 | 35.78907 | -112.81575 | 37878 ft | 336 kts | 255° |
| 2026-05-04 17:06 | 35.77070 | -112.89844 | 37873 ft | 336 kts | 254° |
| 2026-05-04 17:07 | 35.75410 | -112.97269 | 37874 ft | 336 kts | 254° |
| 2026-05-04 17:07 | 35.73954 | -113.03771 | 37876 ft | 337 kts | 254° |
| 2026-05-04 17:08 | 35.72086 | -113.12100 | 37870 ft | 337 kts | 254° |
| 2026-05-04 17:09 | 35.70832 | -113.17654 | 37871 ft | 337 kts | 254° |
| 2026-05-04 17:09 | 35.69574 | -113.23211 | 37865 ft | 337 kts | 254° |
| 2026-05-04 17:10 | 35.66435 | -113.37059 | 37848 ft | 336 kts | 253° |
| 2026-05-04 17:11 | 35.65179 | -113.42581 | 37843 ft | 336 kts | 253° |
| 2026-05-04 17:12 | 35.63289 | -113.50866 | 37839 ft | 336 kts | 253° |
| 2026-05-04 17:13 | 35.58433 | -113.63911 | 37832 ft | 338 kts | 244° |
| 2026-05-04 17:14 | 35.54081 | -113.74126 | 37850 ft | 338 kts | 244° |
| 2026-05-04 17:15 | 35.50808 | -113.81785 | 37884 ft | 338 kts | 244° |
| 2026-05-04 17:16 | 35.46422 | -113.92007 | 37923 ft | 337 kts | 244° |
| 2026-05-04 17:17 | 35.42072 | -114.02134 | 37939 ft | 337 kts | 244° |
| 2026-05-04 17:18 | 35.37697 | -114.12274 | 37927 ft | 336 kts | 244° |
| 2026-05-04 17:19 | 35.33318 | -114.22389 | 37895 ft | 336 kts | 244° |
| 2026-05-04 17:20 | 35.28926 | -114.32510 | 37870 ft | 336 kts | 244° |
| 2026-05-04 17:20 | 35.25622 | -114.40097 | 37892 ft | 337 kts | 244° |
| 2026-05-04 17:21 | 35.21209 | -114.50213 | 37913 ft | 337 kts | 244° |
| 2026-05-04 17:22 | 35.19014 | -114.55235 | 37919 ft | 337 kts | 243° |
| 2026-05-04 17:23 | 35.14585 | -114.65348 | 37912 ft | 337 kts | 243° |
| 2026-05-04 17:24 | 35.11258 | -114.72923 | 37906 ft | 338 kts | 243° |
| 2026-05-04 17:25 | 35.06808 | -114.83022 | 37894 ft | 338 kts | 243° |
| 2026-05-04 17:26 | 35.03085 | -114.93447 | 37891 ft | 339 kts | 257° |
| 2026-05-04 17:27 | 35.01004 | -115.07602 | 37924 ft | 339 kts | 256° |
| 2026-05-04 17:28 | 34.99324 | -115.18937 | 37942 ft | 340 kts | 256° |
| 2026-05-04 17:29 | 34.96937 | -115.34975 | 37965 ft | 339 kts | 256° |
| 2026-05-04 17:31 | 34.94801 | -115.49144 | 37982 ft | 339 kts | 256° |
| 2026-05-04 17:32 | 34.92659 | -115.63264 | 37991 ft | 338 kts | 256° |
| 2026-05-04 17:33 | 34.90928 | -115.74560 | 37997 ft | 338 kts | 256° |
| 2026-05-04 17:34 | 34.89202 | -115.85797 | 37996 ft | 337 kts | 255° |
| 2026-05-04 17:35 | 34.87018 | -115.99881 | 37989 ft | 338 kts | 255° |
| 2026-05-04 17:36 | 34.86145 | -116.05492 | 37979 ft | 337 kts | 255° |
| 2026-05-04 17:36 | 34.85265 | -116.11107 | 37982 ft | 337 kts | 255° |
| 2026-05-04 17:37 | 34.84381 | -116.16711 | 37499 ft | 337 kts | 255° |
| 2026-05-04 17:37 | 34.83935 | -116.19531 | 36472 ft | 342 kts | 254° |
| 2026-05-04 17:37 | 34.83484 | -116.22387 | 35509 ft | 346 kts | 253° |
| 2026-05-04 17:37 | 34.83033 | -116.25251 | 34804 ft | 344 kts | 253° |
| 2026-05-04 17:38 | 34.82606 | -116.27990 | 34119 ft | 334 kts | 252° |
| 2026-05-04 17:38 | 34.82169 | -116.30811 | 33370 ft | 324 kts | 252° |
| 2026-05-04 17:38 | 34.81747 | -116.33498 | 32614 ft | 329 kts | 252° |
| 2026-05-04 17:38 | 34.81312 | -116.36226 | 31941 ft | 328 kts | 252° |
| 2026-05-04 17:39 | 34.80461 | -116.41568 | 30298 ft | 315 kts | 252° |
| 2026-05-04 17:39 | 34.80047 | -116.44173 | 29444 ft | 312 kts | 252° |
| 2026-05-04 17:39 | 34.79647 | -116.46734 | 28564 ft | 309 kts | 253° |
| 2026-05-04 17:40 | 34.79330 | -116.49353 | 27702 ft | 308 kts | 255° |
| 2026-05-04 17:40 | 34.79080 | -116.51924 | 26882 ft | 306 kts | 256° |
| 2026-05-04 17:40 | 34.78852 | -116.54485 | 26092 ft | 303 kts | 257° |
| 2026-05-04 17:40 | 34.78625 | -116.57028 | 25325 ft | 301 kts | 257° |
| 2026-05-04 17:41 | 34.78395 | -116.59550 | 24588 ft | 299 kts | 257° |
| 2026-05-04 17:41 | 34.78161 | -116.62055 | 23874 ft | 297 kts | 257° |
| 2026-05-04 17:41 | 34.77921 | -116.64547 | 23097 ft | 296 kts | 257° |
| 2026-05-04 17:41 | 34.77792 | -116.67045 | 22258 ft | 301 kts | 269° |
| 2026-05-04 17:42 | 34.78444 | -116.69515 | 21430 ft | 319 kts | 290° |
| 2026-05-04 17:42 | 34.79945 | -116.71611 | 20632 ft | 339 kts | 309° |
| 2026-05-04 17:42 | 34.81784 | -116.73412 | 19856 ft | 339 kts | 311° |
| 2026-05-04 17:42 | 34.83669 | -116.75144 | 19091 ft | 344 kts | 320° |
| 2026-05-04 17:43 | 34.85949 | -116.76179 | 18349 ft | 360 kts | 342° |
| 2026-05-04 17:43 | 34.88489 | -116.76149 | 17511 ft | 372 kts | 5° |
| 2026-05-04 17:43 | 34.90916 | -116.75016 | 16688 ft | 377 kts | 28° |
| 2026-05-04 17:43 | 34.92879 | -116.72923 | 15883 ft | 375 kts | 51° |
| 2026-05-04 17:44 | 34.94101 | -116.70177 | 15099 ft | 366 kts | 74° |
| 2026-05-04 17:44 | 34.94433 | -116.67171 | 14333 ft | 353 kts | 97° |
| 2026-05-04 17:44 | 34.93928 | -116.64317 | 13586 ft | 338 kts | 115° |
| 2026-05-04 17:44 | 34.92880 | -116.61837 | 13263 ft | 327 kts | 129° |
| 2026-05-04 17:45 | 34.91377 | -116.59811 | 12996 ft | 319 kts | 145° |
| 2026-05-04 17:45 | 34.89531 | -116.58407 | 12728 ft | 310 kts | 161° |
| 2026-05-04 17:45 | 34.87516 | -116.57692 | 12469 ft | 295 kts | 176° |
| 2026-05-04 17:45 | 34.85511 | -116.57632 | 12217 ft | 284 kts | 190° |
| 2026-05-04 17:46 | 34.83607 | -116.58157 | 11960 ft | 279 kts | 202° |
| 2026-05-04 17:46 | 34.81883 | -116.59198 | 11701 ft | 275 kts | 215° |
| 2026-05-04 17:46 | 34.80422 | -116.60678 | 11462 ft | 273 kts | 227° |
| 2026-05-04 17:46 | 34.79292 | -116.62528 | 11215 ft | 273 kts | 239° |
| 2026-05-04 17:47 | 34.78543 | -116.64653 | 10974 ft | 274 kts | 252° |
| 2026-05-04 17:47 | 34.78201 | -116.66932 | 10733 ft | 276 kts | 261° |
| 2026-05-04 17:47 | 34.77944 | -116.69242 | 10497 ft | 275 kts | 259° |
| 2026-05-04 17:47 | 34.77654 | -116.71548 | 10257 ft | 276 kts | 258° |
| 2026-05-04 17:48 | 34.77355 | -116.73856 | 10021 ft | 276 kts | 259° |
| 2026-05-04 17:48 | 34.77056 | -116.76158 | 9866 ft | 277 kts | 258° |
| 2026-05-04 17:48 | 34.76753 | -116.78474 | 9740 ft | 277 kts | 258° |
| 2026-05-04 17:48 | 34.76454 | -116.80784 | 9609 ft | 276 kts | 258° |
| 2026-05-04 17:49 | 34.76161 | -116.83082 | 9477 ft | 274 kts | 259° |
| 2026-05-04 17:49 | 34.75940 | -116.85383 | 9340 ft | 274 kts | 264° |
| 2026-05-04 17:49 | 34.75969 | -116.87694 | 9207 ft | 274 kts | 272° |
| 2026-05-04 17:49 | 34.76221 | -116.89992 | 9088 ft | 274 kts | 275° |
| 2026-05-04 17:50 | 34.76495 | -116.92279 | 8945 ft | 272 kts | 275° |
| 2026-05-04 17:50 | 34.76752 | -116.94487 | 8818 ft | 271 kts | 275° |
| 2026-05-04 17:50 | 34.77019 | -116.96807 | 8683 ft | 270 kts | 275° |
| 2026-05-04 17:50 | 34.77278 | -116.99062 | 8552 ft | 268 kts | 275° |
| 2026-05-04 17:51 | 34.77537 | -117.01308 | 8422 ft | 268 kts | 275° |
| 2026-05-04 17:51 | 34.77795 | -117.03537 | 8295 ft | 262 kts | 275° |
| 2026-05-04 17:51 | 34.78045 | -117.05682 | 8160 ft | 251 kts | 275° |
| 2026-05-04 17:51 | 34.78284 | -117.07744 | 8032 ft | 243 kts | 275° |
| 2026-05-04 17:52 | 34.78517 | -117.09776 | 7903 ft | 241 kts | 275° |
| 2026-05-04 17:52 | 34.78746 | -117.11794 | 7772 ft | 241 kts | 275° |
| 2026-05-04 17:52 | 34.78975 | -117.13806 | 7670 ft | 240 kts | 275° |
| 2026-05-04 17:52 | 34.79206 | -117.15840 | 7541 ft | 238 kts | 275° |
| 2026-05-04 17:53 | 34.79429 | -117.17831 | 7426 ft | 236 kts | 273° |
| 2026-05-04 17:53 | 34.79463 | -117.19781 | 7316 ft | 225 kts | 266° |
| 2026-05-04 17:53 | 34.79423 | -117.21651 | 7190 ft | 217 kts | 266° |
| 2026-05-04 17:53 | 34.79389 | -117.23468 | 7070 ft | 214 kts | 266° |
| 2026-05-04 17:54 | 34.79356 | -117.25270 | 6949 ft | 212 kts | 266° |
| 2026-05-04 17:54 | 34.79322 | -117.27057 | 6834 ft | 211 kts | 267° |
| 2026-05-04 17:54 | 34.79288 | -117.28843 | 6722 ft | 212 kts | 266° |
| 2026-05-04 17:54 | 34.79252 | -117.30631 | 6589 ft | 211 kts | 266° |
| 2026-05-04 17:55 | 34.79216 | -117.32413 | 6473 ft | 210 kts | 266° |
| 2026-05-04 17:55 | 34.79181 | -117.34188 | 6352 ft | 210 kts | 266° |
| 2026-05-04 17:55 | 34.79141 | -117.35923 | 6227 ft | 201 kts | 264° |
| 2026-05-04 17:55 | 34.78707 | -117.37491 | 6098 ft | 196 kts | 236° |
| 2026-05-04 17:56 | 34.77697 | -117.38525 | 5999 ft | 188 kts | 209° |
| 2026-05-04 17:56 | 34.76424 | -117.38824 | 5879 ft | 189 kts | 185° |
| 2026-05-04 17:56 | 34.75119 | -117.38806 | 5736 ft | 187 kts | 184° |
| 2026-05-04 17:56 | 34.73799 | -117.38791 | 5468 ft | 186 kts | 184° |
| 2026-05-04 17:57 | 34.72542 | -117.38776 | 5176 ft | 178 kts | 184° |
| 2026-05-04 17:57 | 34.71348 | -117.38760 | 4903 ft | 166 kts | 184° |
| 2026-05-04 17:57 | 34.70207 | -117.38746 | 4618 ft | 163 kts | 184° |
| 2026-05-04 17:57 | 34.69079 | -117.38734 | 4340 ft | 157 kts | 184° |
| 2026-05-04 17:58 | 34.68044 | -117.38719 | 4128 ft | 144 kts | 183° |
| 2026-05-04 17:58 | 34.67047 | -117.38709 | 3946 ft | 143 kts | 184° |
| 2026-05-04 17:58 | 34.66079 | -117.38699 | 3749 ft | 134 kts | 184° |
| 2026-05-04 17:58 | 34.65180 | -117.38688 | 3572 ft | 125 kts | 181° |
| 2026-05-04 17:59 | 34.64312 | -117.38679 | 3399 ft | 124 kts | 181° |
| 2026-05-04 17:59 | 34.63454 | -117.38672 | 3241 ft | 120 kts | 179° |
| 2026-05-04 17:59 | 34.61849 | -117.38670 | 2853 ft | 113 kts | 178° |
| 2026-05-04 18:00 | 34.61184 | -117.38657 | 2844 ft | 66 kts | 181° |
| 2026-05-04 18:00 | 34.60967 | -117.38660 | 2847 ft | 18 kts | 180° |
| 2026-05-04 18:00 | 34.60831 | -117.38658 | 2847 ft | 21 kts | 179° |
| 2026-05-04 18:00 | 34.60672 | -117.38655 | 2848 ft | 24 kts | 180° |
| 2026-05-04 18:01 | 34.60497 | -117.38652 | 2852 ft | 26 kts | 178° |
| 2026-05-04 18:01 | 34.60307 | -117.38650 | 2855 ft | 28 kts | 181° |
| 2026-05-04 18:01 | 34.60109 | -117.38650 | 2862 ft | 29 kts | 179° |
| 2026-05-04 18:02 | 34.59759 | -117.38652 | 2871 ft | 31 kts | 180° |
| 2026-05-04 18:02 | 34.59594 | -117.38650 | 2873 ft | 17 kts | 179° |
| 2026-05-04 18:02 | 34.59500 | -117.38613 | 2874 ft | 12 kts | 131° |
| 2026-05-04 18:02 | 34.59488 | -117.38519 | 2872 ft | 0 kts | 89° |
| 2026-05-04 18:03 | 34.59488 | -117.38502 | 2871 ft | 5 kts | 89° |
| 2026-05-04 18:03 | 34.59489 | -117.38433 | 2870 ft | 11 kts | 89° |
| 2026-05-04 18:03 | 34.59439 | -117.38344 | 2870 ft | 15 kts | 137° |
| 2026-05-04 18:03 | 34.59357 | -117.38240 | 2872 ft | 19 kts | 135° |
| 2026-05-04 18:04 | 34.59261 | -117.38132 | 2873 ft | 15 kts | 136° |
| 2026-05-04 18:04 | 34.59193 | -117.38053 | 2873 ft | 8 kts | 162° |
| 2026-05-04 18:04 | 34.59105 | -117.38138 | 2875 ft | 0 kts | 188° |